Time;durP1;ratioP1;P1;durP2;ratioP2;P2;SDS_P1;SDS_P2;PMS_P1;PMS_P2;Temp;Humidity;BMP_temperature;BMP_pressure;BME280_temperature;BME280_humidity;BME280_pressure;Samples;Min_cycle;Max_cycle;Signal;HPM_P1;HPM_P2
2023/02/07 00:01:10;;;;;;;150.90;55.60;;;;;;;-11.89;100.00;100352.17;106313;1251;61323;-78
2023/02/07 00:03:37;;;;;;;93.60;46.30;;;;;;;-11.88;100.00;100347.92;106367;1251;61346;-76
2023/02/07 00:06:09;;;;;;;114.40;53.90;;;;;;;-11.83;100.00;100344.38;106536;1251;61346;-80
2023/02/07 00:08:36;;;;;;;61.00;24.70;;;;;;;-11.83;100.00;100331.98;106540;1251;70956;-76
2023/02/07 00:11:06;;;;;;;88.40;31.60;;;;;;;-11.85;100.00;100331.40;106479;1251;72477;-76
2023/02/07 00:13:33;;;;;;;112.00;48.10;;;;;;;-11.87;100.00;100332.90;106277;1256;61238;-79
2023/02/07 00:15:59;;;;;;;155.70;67.80;;;;;;;-11.91;100.00;100332.27;106312;1251;62319;-76
2023/02/07 00:18:26;;;;;;;110.00;45.00;;;;;;;-11.96;100.00;100332.33;106362;1251;73854;-76
2023/02/07 00:21:00;;;;;;;155.80;63.00;;;;;;;-11.97;100.00;100334.83;106348;1251;61253;-76
2023/02/07 00:23:27;;;;;;;170.50;65.20;;;;;;;-11.98;100.00;100335.55;106307;1251;72885;-76
2023/02/07 00:25:53;;;;;;;205.40;75.80;;;;;;;-12.05;100.00;100335.43;106327;1256;61342;-76
2023/02/07 00:28:20;;;;;;;176.70;67.80;;;;;;;-12.14;100.00;100339.91;106315;1256;61216;-79
2023/02/07 00:30:46;;;;;;;182.50;67.00;;;;;;;-12.14;100.00;100341.09;106321;1251;61247;-76
2023/02/07 00:33:13;;;;;;;220.10;75.90;;;;;;;-12.19;100.00;100338.77;106327;1256;61336;-79
2023/02/07 00:35:39;;;;;;;210.10;72.20;;;;;;;-12.22;100.00;100340.84;106284;1255;61323;-79
2023/02/07 00:38:06;;;;;;;81.00;36.90;;;;;;;-12.24;100.00;100328.39;106155;1253;61334;-76
2023/02/07 00:40:32;;;;;;;78.00;30.60;;;;;;;-12.22;100.00;100320.61;106286;1251;62347;-78
2023/02/07 00:42:59;;;;;;;185.90;70.20;;;;;;;-12.23;100.00;100315.79;106295;1251;61266;-76
2023/02/07 00:45:25;;;;;;;179.50;66.00;;;;;;;-12.25;100.00;100326.51;106314;1251;61257;-79
2023/02/07 00:47:51;;;;;;;217.70;75.40;;;;;;;-12.26;100.00;100333.89;106298;1251;61344;-79
2023/02/07 00:50:18;;;;;;;207.70;73.70;;;;;;;-12.29;100.00;100334.41;106313;1251;61375;-76
2023/02/07 00:52:44;;;;;;;137.60;54.90;;;;;;;-12.42;100.00;100324.28;106300;1251;61246;-76
2023/02/07 00:55:11;;;;;;;180.70;65.70;;;;;;;-12.56;100.00;100308.08;106324;1256;61365;-79
2023/02/07 00:57:37;;;;;;;227.10;81.80;;;;;;;-12.68;100.00;100305.92;106339;1251;61214;-76
2023/02/07 01:00:04;;;;;;;238.30;79.10;;;;;;;-12.71;100.00;100310.64;106278;1251;61320;-76
2023/02/07 01:02:31;;;;;;;198.70;72.40;;;;;;;-12.72;100.00;100309.43;106263;1251;61237;-76
2023/02/07 01:04:58;;;;;;;204.20;74.20;;;;;;;-12.74;100.00;100298.76;106435;1252;61431;-76
2023/02/07 01:07:25;;;;;;;193.10;66.40;;;;;;;-12.86;100.00;100294.96;106327;1252;74020;-76
2023/02/07 01:09:51;;;;;;;191.60;67.60;;;;;;;-12.94;100.00;100294.33;106319;1251;61316;-76
2023/02/07 01:12:18;;;;;;;193.60;68.50;;;;;;;-13.03;100.00;100292.51;106303;1254;61441;-76
2023/02/07 01:14:44;;;;;;;178.80;64.60;;;;;;;-13.09;100.00;100295.08;106301;1251;61307;-79
2023/02/07 01:17:11;;;;;;;176.60;65.60;;;;;;;-13.16;100.00;100294.02;106404;1256;61689;-76
2023/02/07 01:19:37;;;;;;;180.80;64.80;;;;;;;-13.23;100.00;100289.73;106278;1251;61255;-76
2023/02/07 01:22:04;;;;;;;169.80;62.80;;;;;;;-13.32;100.00;100288.58;106446;1251;61824;-76
2023/02/07 01:24:31;;;;;;;188.80;65.50;;;;;;;-13.31;100.00;100287.14;106260;1251;73712;-79
2023/02/07 01:26:57;;;;;;;209.10;72.10;;;;;;;-13.31;100.00;100287.50;106382;1251;61275;-78
2023/02/07 01:29:23;;;;;;;207.00;66.60;;;;;;;-13.32;100.00;100293.97;106289;1251;61354;-76
2023/02/07 01:31:50;;;;;;;184.70;68.80;;;;;;;-13.30;100.00;100304.85;106327;1255;61333;-79
2023/02/07 01:34:16;;;;;;;179.00;60.00;;;;;;;-13.30;100.00;100297.70;106258;1256;61256;-76
2023/02/07 01:36:43;;;;;;;166.80;54.00;;;;;;;-13.33;100.00;100291.58;106367;1256;61342;-76
2023/02/07 01:39:09;;;;;;;139.60;49.50;;;;;;;-13.38;100.00;100285.20;106251;1251;61358;-79
2023/02/07 01:41:36;;;;;;;151.10;50.80;;;;;;;-13.45;100.00;100283.98;106284;1251;61336;-76
2023/02/07 01:44:07;;;;;;;143.80;57.20;;;;;;;-13.55;100.00;100286.55;106314;1251;61355;-76
2023/02/07 01:46:34;;;;;;;126.30;47.70;;;;;;;-13.52;100.00;100280.13;106334;1251;71126;-76
2023/02/07 01:49:07;;;;;;;131.60;50.00;;;;;;;-13.51;100.00;100266.18;106288;1251;72442;-76
2023/02/07 01:51:33;;;;;;;140.40;46.40;;;;;;;-13.53;100.00;100261.78;106174;1256;61231;-76
2023/02/07 01:54:01;;;;;;;146.10;49.30;;;;;;;-13.50;100.00;100259.52;106157;1251;61410;-76
2023/02/07 01:56:28;;;;;;;145.90;48.40;;;;;;;-13.61;100.00;100265.63;106330;1252;72977;-76
2023/02/07 01:58:54;;;;;;;143.70;55.80;;;;;;;-13.64;100.00;100265.26;106154;1251;61409;-79
2023/02/07 02:01:24;;;;;;;164.90;57.80;;;;;;;-13.70;100.00;100270.72;106265;1257;61339;-76
2023/02/07 02:03:53;;;;;;;145.70;51.30;;;;;;;-13.82;100.00;100255.32;106130;1254;61356;-79
2023/02/07 02:06:20;;;;;;;138.30;51.10;;;;;;;-13.88;100.00;100235.64;106295;1251;61231;-79
2023/02/07 02:08:47;;;;;;;159.40;55.90;;;;;;;-13.98;100.00;100237.45;106148;1256;74531;-79
2023/02/07 02:11:52;;;;;;;151.80;58.60;;;;;;;-13.99;100.00;100244.10;106145;1251;62380;-79
2023/02/07 02:14:42;;;;;;;140.10;52.10;;;;;;;-14.02;100.00;100243.73;106141;1251;72002;-79
2023/02/07 02:17:18;;;;;;;110.70;44.40;;;;;;;-14.04;100.00;100249.90;106269;1257;61216;-79
2023/02/07 02:20:22;;;;;;;157.90;59.30;;;;;;;-14.01;100.00;100251.85;106332;1255;61227;-78
2023/02/07 02:23:23;;;;;;;103.00;36.60;;;;;;;-14.01;100.00;100258.98;106329;1251;74612;-79
2023/02/07 02:26:27;;;;;;;142.60;48.80;;;;;;;-13.99;100.00;100260.10;106182;1255;69927;-76
2023/02/07 02:29:21;;;;;;;112.70;42.40;;;;;;;-14.09;100.00;100268.19;106250;1251;72995;-76
2023/02/07 02:31:58;;;;;;;133.00;49.60;;;;;;;-14.13;100.00;100273.59;106294;1251;61345;-76
2023/02/07 02:34:33;;;;;;;164.60;60.90;;;;;;;-14.16;100.00;100270.30;106136;1256;61144;-79
2023/02/07 02:37:08;;;;;;;148.90;53.30;;;;;;;-14.19;100.00;100269.89;106295;1251;73366;-79
2023/02/07 02:40:01;;;;;;;152.80;60.30;;;;;;;-14.24;100.00;100279.85;106024;1251;71053;-76
2023/02/07 02:42:41;;;;;;;151.90;53.70;;;;;;;-14.33;100.00;100292.73;106290;1251;71432;-78
2023/02/07 02:45:11;;;;;;;167.10;59.10;;;;;;;-14.37;100.00;100292.91;106332;1254;61199;-75
2023/02/07 02:47:38;;;;;;;148.90;53.80;;;;;;;-14.39;100.00;100294.75;106501;1251;61246;-76
2023/02/07 02:50:10;;;;;;;155.10;54.90;;;;;;;-14.44;100.00;100295.13;106242;1251;73423;-80
2023/02/07 02:52:36;;;;;;;135.90;50.20;;;;;;;-14.46;100.00;100296.10;106318;1257;71205;-76
2023/02/07 02:55:03;;;;;;;144.60;49.90;;;;;;;-14.54;100.00;100302.01;106326;1251;61148;-76
2023/02/07 02:57:54;;;;;;;139.20;50.90;;;;;;;-14.62;100.00;100301.48;106305;1251;61154;-76
2023/02/07 03:01:00;;;;;;;101.00;39.20;;;;;;;-14.67;100.00;100295.15;106317;1255;61228;-76
2023/02/07 03:03:55;;;;;;;121.20;47.50;;;;;;;-14.73;100.00;100290.00;106323;1256;74533;-76
2023/02/07 03:06:32;;;;;;;149.50;52.40;;;;;;;-14.77;100.00;100293.84;106183;1251;71031;-76
2023/02/07 03:09:14;;;;;;;135.50;50.60;;;;;;;-14.83;100.00;100291.12;106151;1251;72551;-78
2023/02/07 03:11:48;;;;;;;118.20;43.10;;;;;;;-14.79;100.00;100302.22;106352;1256;61329;-77
2023/02/07 03:14:38;;;;;;;127.90;45.30;;;;;;;-14.79;100.00;100312.99;106244;1251;61249;-76
2023/02/07 03:17:19;;;;;;;41.60;22.70;;;;;;;-14.80;100.00;100317.36;106077;1258;74517;-79
2023/02/07 03:20:10;;;;;;;104.80;39.20;;;;;;;-14.75;100.00;100313.86;106291;1252;71132;-79
2023/02/07 03:22:37;;;;;;;110.90;42.00;;;;;;;-14.72;100.00;100314.41;106245;1255;72547;-76
2023/02/07 03:25:03;;;;;;;118.50;41.40;;;;;;;-14.69;100.00;100316.56;106146;1251;61253;-76
2023/02/07 03:27:30;;;;;;;78.40;29.10;;;;;;;-14.61;100.00;100319.67;106332;1255;61196;-79
2023/02/07 03:29:58;;;;;;;86.80;31.30;;;;;;;-14.56;100.00;100318.59;106045;1251;74974;-78
2023/02/07 03:32:31;;;;;;;129.60;46.10;;;;;;;-14.68;100.00;100321.88;106335;1256;71034;-79
2023/02/07 03:35:01;;;;;;;98.80;36.10;;;;;;;-14.70;100.00;100324.39;106152;1251;72502;-76
2023/02/07 03:37:34;;;;;;;66.80;26.90;;;;;;;-14.67;100.00;100326.52;106285;1254;61329;-76
2023/02/07 03:40:01;;;;;;;77.00;26.60;;;;;;;-14.64;100.00;100325.16;106191;1251;61217;-79
2023/02/07 03:42:44;;;;;;;94.60;38.80;;;;;;;-14.63;100.00;100334.16;106190;1256;74945;-79
2023/02/07 03:45:13;;;;;;;77.50;33.60;;;;;;;-14.54;100.00;100331.34;106307;1256;71231;-79
2023/02/07 03:47:39;;;;;;;62.20;24.00;;;;;;;-14.43;100.00;100332.41;106442;1251;72561;-76
2023/02/07 03:50:06;;;;;;;74.30;34.10;;;;;;;-14.30;100.00;100327.67;106324;1251;61379;-76
2023/02/07 03:52:33;;;;;;;28.10;13.50;;;;;;;-14.22;100.00;100318.80;106305;1256;61202;-79
2023/02/07 03:54:59;;;;;;;95.20;40.20;;;;;;;-14.04;100.00;100315.94;106315;1251;61208;-76
2023/02/07 03:57:25;;;;;;;129.20;48.80;;;;;;;-13.75;100.00;100318.79;106294;1251;61157;-76
2023/02/07 03:59:52;;;;;;;80.90;34.20;;;;;;;-13.53;100.00;100314.13;106140;1251;147744;-78
2023/02/07 04:02:18;;;;;;;104.90;40.70;;;;;;;-13.38;100.00;100311.66;106287;1257;61259;-79
2023/02/07 04:04:45;;;;;;;67.40;30.40;;;;;;;-13.24;100.00;100314.82;106282;1255;61352;-79
2023/02/07 04:07:11;;;;;;;59.90;29.00;;;;;;;-13.16;100.00;100314.04;106317;1255;61346;-79
2023/02/07 04:09:38;;;;;;;61.00;31.50;;;;;;;-13.06;100.00;100313.04;106318;1251;61362;-79
2023/02/07 04:12:04;;;;;;;145.20;60.70;;;;;;;-12.95;100.00;100301.89;106313;1251;61336;-79
2023/02/07 04:14:31;;;;;;;76.10;32.70;;;;;;;-12.90;100.00;100299.89;106263;1251;61249;-76
2023/02/07 04:16:57;;;;;;;62.50;33.00;;;;;;;-12.90;100.00;100300.04;106238;1251;62006;-79
2023/02/07 04:19:24;;;;;;;71.10;30.50;;;;;;;-12.93;100.00;100303.48;106315;1252;61790;-79
2023/02/07 04:21:50;;;;;;;61.20;25.80;;;;;;;-12.97;100.00;100304.23;106273;1251;61333;-79
2023/02/07 04:24:16;;;;;;;64.00;33.20;;;;;;;-13.01;100.00;100301.13;106175;1251;61387;-76
2023/02/07 04:26:43;;;;;;;50.60;19.20;;;;;;;-13.02;100.00;100301.37;106422;1251;61278;-79
2023/02/07 04:29:09;;;;;;;107.80;45.40;;;;;;;-13.01;100.00;100303.90;106313;1257;61282;-79
2023/02/07 04:31:36;;;;;;;32.80;23.10;;;;;;;-12.96;100.00;100309.25;106280;1256;61343;-79
2023/02/07 04:34:04;;;;;;;90.60;34.30;;;;;;;-12.95;100.00;100312.85;106281;1256;61346;-76
2023/02/07 04:36:31;;;;;;;38.30;23.80;;;;;;;-13.04;100.00;100319.70;106275;1257;72491;-79
2023/02/07 04:38:57;;;;;;;107.20;42.30;;;;;;;-13.02;100.00;100322.59;106299;1254;61259;-77
2023/02/07 04:41:23;;;;;;;119.10;41.90;;;;;;;-12.97;100.00;100330.20;106369;1254;62303;-77
2023/02/07 04:43:50;;;;;;;60.30;27.30;;;;;;;-12.93;100.00;100327.01;106284;1256;62283;-76
2023/02/07 04:46:16;;;;;;;52.90;31.40;;;;;;;-12.77;100.00;100322.41;106184;1251;61346;-76
2023/02/07 04:48:43;;;;;;;98.50;38.90;;;;;;;-12.63;100.00;100320.44;106249;1257;61336;-75
2023/02/07 04:51:09;;;;;;;45.50;25.70;;;;;;;-12.52;100.00;100324.77;106282;1257;61261;-77
2023/02/07 04:53:36;;;;;;;42.20;23.90;;;;;;;-12.46;100.00;100321.34;106301;1251;61275;-79
2023/02/07 04:56:03;;;;;;;67.80;27.80;;;;;;;-12.43;100.00;100328.15;106312;1251;62277;-79
2023/02/07 04:58:29;;;;;;;109.60;44.80;;;;;;;-12.51;100.00;100324.73;106336;1251;61211;-76
2023/02/07 05:00:55;;;;;;;123.30;51.90;;;;;;;-12.55;100.00;100325.46;106320;1256;62194;-79
2023/02/07 05:03:22;;;;;;;109.80;48.70;;;;;;;-12.52;100.00;100328.61;106353;1251;61307;-80
2023/02/07 05:05:51;;;;;;;64.60;24.50;;;;;;;-12.51;100.00;100329.11;106308;1256;61221;-77
2023/02/07 05:08:18;;;;;;;149.40;53.00;;;;;;;-12.52;100.00;100318.16;106497;1255;74547;-76
2023/02/07 05:10:45;;;;;;;121.20;45.80;;;;;;;-12.54;100.00;100318.11;106300;1257;69905;-76
2023/02/07 05:13:11;;;;;;;110.90;43.60;;;;;;;-12.57;100.00;100318.73;106321;1257;62300;-79
2023/02/07 05:15:38;;;;;;;124.10;47.60;;;;;;;-12.49;100.00;100322.88;106329;1256;61155;-79
2023/02/07 05:18:04;;;;;;;119.30;45.10;;;;;;;-12.49;100.00;100326.35;106335;1256;60116;-76
2023/02/07 05:20:31;;;;;;;112.10;43.60;;;;;;;-12.46;100.00;100328.15;106320;1256;61215;-77
2023/02/07 05:22:57;;;;;;;58.50;21.40;;;;;;;-12.38;100.00;100317.78;106313;1251;61190;-76
2023/02/07 05:25:24;;;;;;;63.90;27.40;;;;;;;-12.28;100.00;100316.57;106244;1257;61416;-76
2023/02/07 05:27:50;;;;;;;114.50;42.20;;;;;;;-12.21;100.00;100319.91;106212;1256;62341;-76
2023/02/07 05:30:17;;;;;;;119.60;47.70;;;;;;;-12.16;100.00;100324.00;106321;1251;61299;-76
2023/02/07 05:33:02;;;;;;;41.10;19.50;;;;;;;-12.07;100.00;100333.96;106360;1251;61336;-79
2023/02/07 05:35:36;;;;;;;89.00;36.80;;;;;;;-12.04;100.00;100336.77;106332;1257;68920;-79
2023/02/07 05:38:05;;;;;;;124.40;46.60;;;;;;;-12.00;100.00;100338.79;106293;1256;72668;-76
2023/02/07 05:40:33;;;;;;;75.90;35.30;;;;;;;-11.89;100.00;100339.65;106179;1256;61237;-76
2023/02/07 05:42:59;;;;;;;55.90;27.00;;;;;;;-11.86;100.00;100339.11;106276;1257;60778;-76
2023/02/07 05:45:25;;;;;;;158.90;61.80;;;;;;;-11.84;100.00;100335.37;106298;1255;61247;-79
2023/02/07 05:47:52;;;;;;;117.30;48.40;;;;;;;-11.82;100.00;100331.02;106318;1251;62279;-76
2023/02/07 05:50:18;;;;;;;120.90;48.00;;;;;;;-11.76;100.00;100329.31;106287;1255;61355;-76
2023/02/07 05:52:44;;;;;;;109.50;45.60;;;;;;;-11.70;100.00;100327.92;106325;1256;61257;-79
2023/02/07 05:55:11;;;;;;;88.70;41.00;;;;;;;-11.66;100.00;100318.63;106294;1251;61336;-79
2023/02/07 05:57:41;;;;;;;145.60;58.40;;;;;;;-11.65;100.00;100320.17;106336;1254;61290;-76
2023/02/07 06:00:11;;;;;;;135.70;50.80;;;;;;;-11.66;100.00;100329.45;106297;1251;71132;-77
2023/02/07 06:02:41;;;;;;;119.20;46.90;;;;;;;-11.65;100.00;100333.25;106291;1251;72533;-76
2023/02/07 06:05:09;;;;;;;84.30;43.70;;;;;;;-11.59;100.00;100327.54;106190;1252;63219;-76
2023/02/07 06:07:36;;;;;;;105.60;56.00;;;;;;;-11.59;100.00;100330.14;106454;1257;61222;-76
2023/02/07 06:10:04;;;;;;;121.90;54.70;;;;;;;-11.65;100.00;100331.68;106293;1256;61313;-76
2023/02/07 06:12:31;;;;;;;58.00;30.60;;;;;;;-11.62;100.00;100328.58;106337;1251;71022;-76
2023/02/07 06:14:57;;;;;;;339.20;167.70;;;;;;;-11.60;100.00;100326.72;106361;1251;71426;-76
2023/02/07 06:17:24;;;;;;;102.30;45.40;;;;;;;-11.57;100.00;100328.45;106355;1257;61259;-80
2023/02/07 06:19:51;;;;;;;162.80;63.40;;;;;;;-11.52;100.00;100329.77;106352;1252;61243;-76
2023/02/07 06:22:17;;;;;;;61.60;29.30;;;;;;;-11.50;100.00;100324.36;106280;1257;61343;-77
2023/02/07 06:24:44;;;;;;;38.00;16.30;;;;;;;-11.39;100.00;100329.55;106306;1256;70030;-76
2023/02/07 06:27:10;;;;;;;60.40;27.20;;;;;;;-11.36;100.00;100331.12;106352;1251;61275;-77
2023/02/07 06:29:37;;;;;;;102.70;45.00;;;;;;;-11.33;100.00;100329.57;106308;1251;61424;-75
2023/02/07 06:32:03;;;;;;;99.70;43.90;;;;;;;-11.26;100.00;100331.81;106317;1257;61252;-76
2023/02/07 06:34:30;;;;;;;56.90;25.20;;;;;;;-11.17;100.00;100336.88;106294;1257;61200;-76
2023/02/07 06:36:56;;;;;;;66.70;22.20;;;;;;;-11.12;100.00;100337.24;106339;1251;71238;-76
2023/02/07 06:39:23;;;;;;;74.10;33.10;;;;;;;-11.13;100.00;100332.09;106272;1251;61212;-76
2023/02/07 06:41:49;;;;;;;77.10;32.20;;;;;;;-11.13;100.00;100335.59;106307;1256;61304;-79
2023/02/07 06:44:15;;;;;;;115.00;44.00;;;;;;;-11.06;100.00;100339.40;106308;1251;61492;-76
2023/02/07 06:46:42;;;;;;;101.50;39.40;;;;;;;-10.99;100.00;100337.96;106341;1257;61361;-79
2023/02/07 06:49:09;;;;;;;107.70;44.90;;;;;;;-10.91;100.00;100334.72;106367;1255;61330;-79
2023/02/07 06:51:38;;;;;;;60.30;28.80;;;;;;;-10.83;100.00;100335.98;107824;1256;73292;-77
2023/02/07 06:54:08;;;;;;;153.30;60.40;;;;;;;-10.79;100.00;100339.44;107548;1251;61160;-76
2023/02/07 06:56:36;;;;;;;104.40;44.30;;;;;;;-10.78;100.00;100339.92;106708;1255;61423;-79
2023/02/07 06:59:02;;;;;;;100.30;44.20;;;;;;;-10.79;100.00;100345.56;106460;1251;74613;-79
2023/02/07 07:01:29;;;;;;;85.00;37.20;;;;;;;-10.77;100.00;100351.52;106703;1254;61618;-80
2023/02/07 07:03:55;;;;;;;126.80;61.10;;;;;;;-10.73;100.00;100344.32;106944;1254;72520;-76
2023/02/07 07:06:21;;;;;;;123.60;51.50;;;;;;;-10.72;100.00;100343.71;106822;1256;61339;-79
2023/02/07 07:08:50;;;;;;;77.70;31.50;;;;;;;-10.73;100.00;100356.71;106408;1254;61256;-79
2023/02/07 07:11:17;;;;;;;152.80;61.80;;;;;;;-10.69;100.00;100346.38;107334;1254;73679;-77
2023/02/07 07:13:43;;;;;;;128.70;60.50;;;;;;;-10.65;100.00;100352.41;107425;1251;69886;-77
2023/02/07 07:16:10;;;;;;;95.90;35.20;;;;;;;-10.64;100.00;100349.95;108051;1256;71344;-76
2023/02/07 07:18:37;;;;;;;87.20;38.40;;;;;;;-10.61;100.00;100350.24;106496;1255;61282;-80
2023/02/07 07:21:04;;;;;;;170.00;69.70;;;;;;;-10.57;100.00;100355.27;106961;1257;61666;-76
2023/02/07 07:23:30;;;;;;;135.30;61.00;;;;;;;-10.49;100.00;100354.98;107995;1256;74514;-80
2023/02/07 07:25:57;;;;;;;178.10;77.70;;;;;;;-10.37;100.00;100349.02;106983;1256;71061;-76
2023/02/07 07:28:24;;;;;;;160.60;71.10;;;;;;;-10.28;100.00;100347.45;106465;1256;61368;-76
2023/02/07 07:30:50;;;;;;;127.80;56.40;;;;;;;-10.15;100.00;100340.52;106486;1256;61233;-79
2023/02/07 07:33:16;;;;;;;108.30;47.40;;;;;;;-10.06;100.00;100337.88;107653;1256;61100;-79
2023/02/07 07:35:43;;;;;;;100.40;46.50;;;;;;;-10.00;100.00;100347.30;108369;1256;61137;-76
2023/02/07 07:38:10;;;;;;;133.30;58.10;;;;;;;-9.96;100.00;100348.48;107505;1256;71023;-79
2023/02/07 07:40:37;;;;;;;194.70;92.70;;;;;;;-9.97;100.00;100347.61;106921;1253;72403;-79
2023/02/07 07:43:04;;;;;;;157.00;70.60;;;;;;;-9.84;100.00;100351.61;108500;1254;61250;-77
2023/02/07 07:45:31;;;;;;;173.70;78.20;;;;;;;-9.71;100.00;100353.20;108387;1253;60158;-77
2023/02/07 07:47:57;;;;;;;186.50;88.90;;;;;;;-9.58;100.00;100360.62;107028;1251;61233;-80
2023/02/07 07:50:24;;;;;;;159.60;72.20;;;;;;;-9.50;100.00;100366.06;108317;1254;70917;-80
2023/02/07 07:52:50;;;;;;;120.90;49.60;;;;;;;-9.41;100.00;100370.25;109330;1253;71851;-77
2023/02/07 07:55:17;;;;;;;159.80;75.20;;;;;;;-9.34;100.00;100369.48;109332;1256;59327;-78
2023/02/07 07:57:43;;;;;;;162.10;71.50;;;;;;;-9.31;100.00;100359.13;109460;1251;58990;-77
2023/02/07 08:00:10;;;;;;;119.90;56.40;;;;;;;-9.25;100.00;100355.59;109498;1251;59213;-75
2023/02/07 08:02:37;;;;;;;151.10;63.00;;;;;;;-9.24;100.00;100355.73;109447;1251;70046;-77
2023/02/07 08:05:04;;;;;;;215.40;91.90;;;;;;;-9.21;100.00;100362.36;108399;1251;61250;-79
2023/02/07 08:07:30;;;;;;;163.10;72.90;;;;;;;-9.13;100.00;100358.15;107497;1257;62268;-76
2023/02/07 08:09:57;;;;;;;213.30;100.20;;;;;;;-9.03;100.00;100348.93;106804;1257;61458;-79
2023/02/07 08:12:23;;;;;;;149.20;70.30;;;;;;;-8.90;100.00;100353.90;108616;1256;61253;-78
2023/02/07 08:14:50;;;;;;;147.30;64.30;;;;;;;-8.81;100.00;100349.77;108465;1252;59272;-78
2023/02/07 08:17:17;;;;;;;115.70;51.70;;;;;;;-8.74;100.00;100346.34;107006;1255;61444;-78
2023/02/07 08:19:43;;;;;;;152.70;65.80;;;;;;;-8.69;100.00;100345.36;107340;1251;61212;-76
2023/02/07 08:22:10;;;;;;;53.50;29.60;;;;;;;-8.71;100.00;100343.16;108040;1251;61189;-76
2023/02/07 08:24:36;;;;;;;87.80;39.70;;;;;;;-8.64;100.00;100344.08;108214;1255;61125;-76
2023/02/07 08:27:02;;;;;;;202.10;89.90;;;;;;;-8.57;100.00;100335.72;107271;1257;61262;-76
2023/02/07 08:29:29;;;;;;;240.50;96.50;;;;;;;-8.46;100.00;100324.32;106725;1252;61096;-78
2023/02/07 08:31:55;;;;;;;244.70;93.80;;;;;;;-8.32;100.00;100324.77;108507;1255;61460;-79
2023/02/07 08:34:25;;;;;;;199.30;82.70;;;;;;;-8.31;100.00;100316.25;107768;1252;61139;-79
2023/02/07 08:36:52;;;;;;;161.40;64.60;;;;;;;-8.22;100.00;100312.51;108483;1252;73426;-76
2023/02/07 08:39:18;;;;;;;301.20;126.40;;;;;;;-8.16;100.00;100313.45;106649;1257;71668;-75
2023/02/07 08:41:45;;;;;;;245.90;100.10;;;;;;;-8.18;100.00;100310.70;106522;1253;70861;-76
2023/02/07 08:44:11;;;;;;;214.20;82.80;;;;;;;-8.10;100.00;100308.15;107172;1252;61195;-76
2023/02/07 08:46:37;;;;;;;229.50;95.90;;;;;;;-7.99;100.00;100301.44;107899;1255;61218;-78
2023/02/07 08:49:04;;;;;;;157.00;67.30;;;;;;;-8.00;100.00;100303.63;106624;1256;61288;-79
2023/02/07 08:51:30;;;;;;;159.00;65.10;;;;;;;-7.98;100.00;100302.09;107393;1255;61572;-80
2023/02/07 08:53:57;;;;;;;136.90;55.70;;;;;;;-7.86;100.00;100298.59;108069;1253;61240;-79
2023/02/07 08:56:23;;;;;;;123.60;51.80;;;;;;;-7.68;100.00;100299.48;107540;1255;61346;-76
2023/02/07 08:58:50;;;;;;;123.20;55.30;;;;;;;-7.53;100.00;100301.01;106500;1261;60780;-79
2023/02/07 09:01:16;;;;;;;112.70;51.20;;;;;;;-7.39;100.00;100300.34;106892;1254;61274;-77
2023/02/07 09:03:43;;;;;;;109.20;47.10;;;;;;;-7.18;100.00;100296.35;107790;1256;61250;-79
2023/02/07 09:06:09;;;;;;;122.60;53.50;;;;;;;-6.98;100.00;100295.96;107960;1256;59253;-76
2023/02/07 09:08:36;;;;;;;127.20;55.60;;;;;;;-6.79;100.00;100297.52;108620;1256;59354;-76
2023/02/07 09:11:02;;;;;;;116.20;51.20;;;;;;;-6.63;99.62;100296.86;107618;1251;61656;-76
2023/02/07 09:13:29;;;;;;;127.60;56.60;;;;;;;-6.45;99.92;100290.25;108998;1251;59513;-76
2023/02/07 09:15:56;;;;;;;125.50;57.10;;;;;;;-6.26;100.00;100288.06;109237;1252;60324;-76
2023/02/07 09:18:23;;;;;;;115.00;53.10;;;;;;;-6.13;100.00;100289.40;109277;1251;59846;-79
2023/02/07 09:20:49;;;;;;;124.70;57.30;;;;;;;-6.05;100.00;100288.06;109121;1251;59869;-78
2023/02/07 09:23:18;;;;;;;137.90;58.70;;;;;;;-5.91;100.00;100286.27;108338;1255;61054;-78
2023/02/07 09:25:46;;;;;;;334.20;114.90;;;;;;;-5.91;100.00;100283.10;106620;1251;74675;-78
2023/02/07 09:28:12;;;;;;;300.90;130.60;;;;;;;-5.93;100.00;100285.01;109429;1251;71482;-76
2023/02/07 09:30:40;;;;;;;339.50;143.80;;;;;;;-5.84;99.88;100281.06;109348;1251;59096;-76
2023/02/07 09:33:07;;;;;;;238.10;99.50;;;;;;;-5.82;98.51;100283.43;109399;1251;60921;-78
2023/02/07 09:35:38;;;;;;;123.50;58.20;;;;;;;-5.58;99.96;100276.20;109430;1250;61951;-76
2023/02/07 09:38:05;;;;;;;102.70;51.60;;;;;;;-5.43;100.00;100272.73;109455;1251;73146;-78
2023/02/07 09:40:32;;;;;;;127.20;54.20;;;;;;;-5.50;100.00;100280.67;107548;1251;71755;-75
2023/02/07 09:43:23;;;;;;;147.70;65.10;;;;;;;-5.46;100.00;100282.31;109219;1257;72569;-75
2023/02/07 09:45:52;;;;;;;123.40;54.00;;;;;;;-5.41;100.00;100283.11;109183;1251;59161;-78
2023/02/07 09:48:22;;;;;;;109.70;54.50;;;;;;;-5.39;100.00;100279.77;107999;1254;61151;-78
2023/02/07 09:50:51;;;;;;;115.10;58.30;;;;;;;-5.40;100.00;100283.91;108191;1256;74537;-75
2023/02/07 09:53:22;;;;;;;126.30;51.40;;;;;;;-5.40;100.00;100277.60;107728;1251;72569;-78
2023/02/07 09:55:51;;;;;;;120.60;55.00;;;;;;;-5.45;100.00;100279.89;107390;1256;71532;-80
2023/02/07 09:58:37;;;;;;;102.50;44.50;;;;;;;-5.51;100.00;100276.40;107616;1251;61297;-79
2023/02/07 10:01:10;;;;;;;99.70;47.20;;;;;;;-5.49;100.00;100277.77;107782;1251;61185;-79
2023/02/07 10:03:41;;;;;;;127.70;55.50;;;;;;;-5.59;100.00;100285.83;107415;1251;76777;-79
2023/02/07 10:06:13;;;;;;;107.20;48.30;;;;;;;-5.72;100.00;100291.60;108122;1251;69955;-79
2023/02/07 10:08:40;;;;;;;109.20;53.20;;;;;;;-5.75;100.00;100284.59;106797;1255;74472;-76
2023/02/07 10:11:13;;;;;;;84.50;42.50;;;;;;;-5.82;100.00;100280.79;108593;1251;60672;-76
2023/02/07 10:13:48;;;;;;;89.20;37.70;;;;;;;-5.83;100.00;100274.70;109263;1251;60263;-77
2023/02/07 10:16:45;;;;;;;106.50;48.10;;;;;;;-5.74;100.00;100269.22;109220;1251;75625;-77
2023/02/07 10:19:26;;;;;;;127.20;56.30;;;;;;;-5.69;100.00;100268.95;108424;1256;61544;-79
2023/02/07 10:21:56;;;;;;;115.00;53.30;;;;;;;-5.60;100.00;100268.60;106740;1258;71445;-79
2023/02/07 10:24:50;;;;;;;131.40;57.00;;;;;;;-5.59;100.00;100270.82;107185;1251;61284;-79
2023/02/07 10:27:28;;;;;;;259.30;95.60;;;;;;;-5.51;100.00;100265.80;106829;1251;61227;-76
2023/02/07 10:29:55;;;;;;;452.30;202.90;;;;;;;-5.41;100.00;100262.66;107062;1251;74446;-79
2023/02/07 10:32:24;;;;;;;422.70;173.70;;;;;;;-5.49;100.00;100265.27;108206;1254;69609;-79
2023/02/07 10:35:13;;;;;;;197.00;80.30;;;;;;;-5.48;100.00;100266.61;107339;1251;71471;-79
2023/02/07 10:37:40;;;;;;;206.80;81.40;;;;;;;-5.40;100.00;100259.08;106283;1254;61815;-75
2023/02/07 10:40:15;;;;;;;127.80;56.50;;;;;;;-5.32;100.00;100257.71;106554;1251;61215;-75
2023/02/07 10:42:42;;;;;;;132.80;62.90;;;;;;;-5.25;100.00;100259.44;106862;1252;74548;-78
2023/02/07 10:45:11;;;;;;;328.50;111.60;;;;;;;-5.22;100.00;100254.64;107515;1257;70517;-79
2023/02/07 10:47:38;;;;;;;233.70;83.80;;;;;;;-5.17;100.00;100245.58;106081;1252;72662;-78
2023/02/07 10:50:15;;;;;;;182.80;68.00;;;;;;;-5.19;100.00;100244.33;107988;1251;61174;-79
2023/02/07 10:52:48;;;;;;;228.00;95.40;;;;;;;-5.22;100.00;100245.96;108456;1251;59657;-78